Time;durP1;ratioP1;P1;durP2;ratioP2;P2;SDS_P1;SDS_P2;PMS_P1;PMS_P2;Temp;Humidity;BMP_temperature;BMP_pressure;BME280_temperature;BME280_humidity;BME280_pressure;Samples;Min_cycle;Max_cycle;Signal;HPM_P1;HPM_P2
2023/12/17 00:02:20;;;;;;;1.20;1.20;;;1.80;86.20;0.70;98118.00;;;;5076777;28;20234;-61
2023/12/17 00:04:47;;;;;;;1.33;1.33;;;1.80;86.10;0.70;98107.00;;;;5076629;28;20190;-61
2023/12/17 00:07:14;;;;;;;1.00;1.00;;;1.80;85.50;0.60;98107.00;;;;5076493;28;20201;-61
2023/12/17 00:09:41;;;;;;;1.27;1.17;;;1.70;85.40;0.50;98096.00;;;;5075048;28;20539;-62
2023/12/17 00:12:08;;;;;;;1.37;1.30;;;1.60;85.10;0.50;98099.00;;;;5076118;28;20218;-62
2023/12/17 00:14:35;;;;;;;1.57;1.40;;;1.60;85.00;0.50;98090.00;;;;5076156;28;20233;-61
2023/12/17 00:17:03;;;;;;;1.67;1.57;;;1.60;85.10;0.50;98087.00;;;;5076358;28;20217;-61
2023/12/17 00:19:32;;;;;;;1.30;1.20;;;1.60;85.70;0.60;98091.00;;;;5076475;28;20553;-61
2023/12/17 00:21:59;;;;;;;1.93;1.50;;;1.60;85.70;0.50;98087.00;;;;5074653;28;20210;-62
2023/12/17 00:24:26;;;;;;;1.30;1.30;;;1.70;85.50;0.40;98095.00;;;;5075876;28;20211;-62
2023/12/17 00:26:56;;;;;;;11.50;2.10;;;1.60;85.00;0.50;98099.00;;;;5075920;28;20190;-62
2023/12/17 00:29:24;;;;;;;1.57;1.47;;;1.60;85.50;0.40;98100.00;;;;5076160;28;20179;-61
2023/12/17 00:31:51;;;;;;;1.20;1.20;;;1.50;85.10;0.40;98104.00;;;;5075705;28;20234;-61
2023/12/17 00:34:18;;;;;;;1.30;1.23;;;1.50;85.60;0.30;98096.00;;;;5075827;28;20215;-61
2023/12/17 00:36:48;;;;;;;1.63;1.53;;;1.40;85.30;0.30;98112.00;;;;5075892;28;20191;-60
2023/12/17 00:39:15;;;;;;;1.00;1.00;;;1.50;85.80;0.30;98105.00;;;;5076481;28;20549;-60
2023/12/17 00:41:42;;;;;;;1.27;1.27;;;1.40;85.70;0.40;98102.00;;;;5075604;28;20214;-60
2023/12/17 00:44:09;;;;;;;1.23;1.23;;;1.40;85.70;0.30;98102.00;;;;5074156;28;20312;-61
2023/12/17 00:46:36;;;;;;;1.47;1.40;;;1.30;85.40;0.20;98109.00;;;;5076109;28;20201;-61
2023/12/17 00:49:03;;;;;;;2.30;1.90;;;1.40;85.30;0.30;98113.00;;;;5074313;28;20273;-61
2023/12/17 00:51:30;;;;;;;1.63;1.53;;;1.40;85.70;0.30;98118.00;;;;5075413;28;20698;-61
2023/12/17 00:53:58;;;;;;;1.37;1.37;;;1.40;85.40;0.20;98101.00;;;;5075555;28;20301;-61
2023/12/17 00:56:25;;;;;;;4.33;2.80;;;1.40;85.40;0.30;98105.00;;;;5074231;28;20555;-61
2023/12/17 00:58:52;;;;;;;12.67;7.70;;;1.40;85.90;0.40;98119.00;;;;5075559;28;20194;-62
2023/12/17 01:01:19;;;;;;;12.37;8.27;;;1.40;86.40;0.40;98128.00;;;;5075547;28;20550;-62
2023/12/17 01:03:46;;;;;;;1.73;1.63;;;1.50;86.60;0.30;98129.00;;;;5074613;28;20228;-61
2023/12/17 01:06:13;;;;;;;5.30;1.37;;;1.40;86.10;0.20;98113.00;;;;5075767;28;20665;-62
2023/12/17 01:08:40;;;;;;;1.27;1.27;;;1.40;85.60;0.20;98106.00;;;;5075537;28;20191;-61
2023/12/17 01:11:09;;;;;;;1.30;1.30;;;1.30;85.90;0.30;98110.00;;;;5075825;28;20191;-61
2023/12/17 01:13:36;;;;;;;1.83;1.73;;;1.40;86.10;0.30;98114.00;;;;5075368;28;20218;-62
2023/12/17 01:16:04;;;;;;;1.30;1.23;;;1.40;85.90;0.30;98113.00;;;;5075278;28;20190;-62
2023/12/17 01:18:31;;;;;;;0.90;0.90;;;1.40;85.50;0.20;98105.00;;;;5075254;28;20197;-62
2023/12/17 01:21:02;;;;;;;1.63;1.53;;;1.40;85.30;0.20;98110.00;;;;5075089;28;20197;-62
2023/12/17 01:23:29;;;;;;;3.80;2.17;;;1.30;85.50;0.30;98113.00;;;;5074919;28;20222;-62
2023/12/17 01:25:59;;;;;;;1.50;1.40;;;1.30;85.40;0.30;98118.00;;;;5075292;28;20210;-62
2023/12/17 01:28:27;;;;;;;2.30;1.63;;;1.40;86.20;0.30;98122.00;;;;5074768;28;20185;-62
2023/12/17 01:30:54;;;;;;;1.70;1.13;;;1.40;85.70;0.40;98112.00;;;;5075029;28;20195;-62
2023/12/17 01:33:21;;;;;;;1.10;1.10;;;1.40;85.80;0.20;98132.00;;;;5074841;28;20693;-61
2023/12/17 01:35:48;;;;;;;0.77;0.77;;;1.30;84.90;0.30;98129.00;;;;5075141;28;20191;-62
2023/12/17 01:38:15;;;;;;;2.20;1.53;;;1.40;85.40;0.30;98127.00;;;;5073461;28;20199;-61
2023/12/17 01:40:43;;;;;;;15.17;1.87;;;1.30;85.40;0.20;98124.00;;;;5074986;28;20194;-62
2023/12/17 01:43:10;;;;;;;1.20;1.13;;;1.30;85.40;0.20;98121.00;;;;5074475;28;20230;-62
2023/12/17 01:45:38;;;;;;;1.20;1.20;;;1.20;85.70;0.30;98125.00;;;;5074566;28;20190;-62
2023/12/17 01:48:06;;;;;;;11.30;1.40;;;1.30;86.10;0.30;98126.00;;;;5074554;28;20193;-62
2023/12/17 01:50:33;;;;;;;0.97;0.97;;;1.40;86.00;0.20;98121.00;;;;5074489;28;20190;-62
2023/12/17 01:53:01;;;;;;;1.33;1.33;;;1.40;86.10;0.20;98109.00;;;;5074450;28;20209;-61
2023/12/17 01:55:29;;;;;;;1.17;1.17;;;1.30;86.40;0.30;98129.00;;;;5074467;28;20182;-61
2023/12/17 01:57:57;;;;;;;1.20;1.13;;;1.40;86.60;0.20;98121.00;;;;5074534;28;20576;-62
2023/12/17 02:00:25;;;;;;;1.77;1.67;;;1.30;86.30;0.10;98108.00;;;;5074359;28;20190;-62
2023/12/17 02:02:54;;;;;;;3.30;1.90;;;1.30;86.10;0.00;98122.00;;;;5074079;28;20220;-63
2023/12/17 02:05:21;;;;;;;2.17;1.90;;;1.20;86.10;0.10;98132.00;;;;5074578;28;20189;-63
2023/12/17 02:07:48;;;;;;;1.60;1.50;;;1.20;86.20;0.00;98133.00;;;;5074149;28;20193;-61
2023/12/17 02:10:16;;;;;;;4.90;2.73;;;1.20;85.80;-0.10;98120.00;;;;5074037;28;20193;-62
2023/12/17 02:12:44;;;;;;;2.03;1.93;;;1.10;85.00;-0.10;98126.00;;;;5074626;28;20225;-63
2023/12/17 02:15:11;;;;;;;1.60;1.47;;;1.10;85.90;-0.20;98124.00;;;;5074156;28;20212;-62
2023/12/17 02:17:38;;;;;;;1.50;1.40;;;1.00;85.60;-0.20;98122.00;;;;5074866;28;20194;-63
2023/12/17 02:20:08;;;;;;;1.67;1.57;;;0.90;85.30;-0.20;98119.00;;;;5074145;28;20684;-62
2023/12/17 02:22:37;;;;;;;2.27;2.07;;;0.90;85.90;-0.20;98124.00;;;;5074281;28;20215;-62
2023/12/17 02:25:09;;;;;;;1.63;1.53;;;0.90;86.40;-0.20;98130.00;;;;5072589;28;20553;-61
2023/12/17 02:27:37;;;;;;;1.57;1.47;;;0.90;86.10;-0.10;98126.00;;;;5074222;28;20184;-62
2023/12/17 02:30:06;;;;;;;1.90;1.80;;;1.00;86.20;-0.10;98124.00;;;;5074299;28;20208;-61
2023/12/17 02:32:33;;;;;;;0.90;0.90;;;1.00;85.90;-0.10;98134.00;;;;5073761;28;20235;-62
2023/12/17 02:35:00;;;;;;;1.30;1.17;;;1.00;85.50;-0.10;98138.00;;;;5073702;28;20199;-62
2023/12/17 02:37:27;;;;;;;1.20;1.10;;;1.00;85.20;-0.20;98124.00;;;;5073598;28;20197;-61
2023/12/17 02:39:54;;;;;;;9.57;3.30;;;1.00;84.30;-0.10;98119.00;;;;5073706;28;20207;-61
2023/12/17 02:42:22;;;;;;;9.23;2.50;;;0.90;84.60;-0.20;98124.00;;;;5073389;28;20577;-61
2023/12/17 02:44:49;;;;;;;1.00;1.00;;;0.90;85.00;-0.20;98135.00;;;;5073398;28;20697;-61
2023/12/17 02:47:16;;;;;;;2.07;1.67;;;0.90;85.50;-0.10;98138.00;;;;5073386;28;20567;-61
2023/12/17 02:49:43;;;;;;;1.90;1.67;;;1.00;86.20;-0.10;98132.00;;;;5073358;28;20190;-61
2023/12/17 02:52:11;;;;;;;2.70;2.30;;;1.00;86.10;0.00;98134.00;;;;5073374;28;20546;-61
2023/12/17 02:54:37;;;;;;;1.37;1.27;;;1.10;86.00;0.00;98122.00;;;;5073287;28;20191;-61
2023/12/17 02:57:05;;;;;;;1.40;1.37;;;1.10;86.00;0.00;98130.00;;;;5073549;28;20186;-61
2023/12/17 02:59:33;;;;;;;1.50;1.47;;;1.10;86.00;-0.20;98121.00;;;;5073126;28;20200;-61
2023/12/17 03:02:00;;;;;;;1.67;1.57;;;1.00;85.20;-0.10;98112.00;;;;5072965;28;20214;-61
2023/12/17 03:04:27;;;;;;;2.43;1.73;;;1.00;85.70;-0.20;98115.00;;;;5073062;28;20270;-61
2023/12/17 03:06:54;;;;;;;1.80;1.47;;;1.00;85.70;-0.10;98116.00;;;;5073156;28;20213;-62
2023/12/17 03:09:21;;;;;;;2.90;1.57;;;0.90;86.20;-0.20;98113.00;;;;5073169;28;20197;-61
2023/12/17 03:11:48;;;;;;;1.30;1.30;;;0.90;85.90;-0.20;98105.00;;;;5073443;28;20290;-61
2023/12/17 03:14:15;;;;;;;1.80;1.63;;;0.90;85.80;-0.20;98099.00;;;;5073035;28;20254;-61
2023/12/17 03:16:44;;;;;;;1.80;1.67;;;0.90;85.70;-0.30;98093.00;;;;5073036;28;20190;-61
2023/12/17 03:19:11;;;;;;;1.13;1.10;;;0.90;85.10;-0.30;98104.00;;;;5071750;28;20205;-61
2023/12/17 03:21:38;;;;;;;1.70;1.60;;;0.80;85.20;-0.30;98099.00;;;;5072914;28;20624;-61
2023/12/17 03:24:06;;;;;;;1.97;1.57;;;0.80;85.00;-0.30;98087.00;;;;5073121;28;20620;-61
2023/12/17 03:26:33;;;;;;;1.57;1.47;;;0.80;85.20;-0.30;98083.00;;;;5072498;28;20222;-61
2023/12/17 03:29:00;;;;;;;0.87;0.87;;;0.90;85.40;-0.20;98090.00;;;;5072915;28;20185;-61
2023/12/17 03:31:29;;;;;;;1.27;1.27;;;0.80;85.30;-0.30;98097.00;;;;5072986;28;20203;-61
2023/12/17 03:33:57;;;;;;;2.93;1.33;;;0.80;84.80;-0.30;98084.00;;;;5072832;28;20563;-61
2023/12/17 03:36:25;;;;;;;0.97;0.97;;;0.80;85.10;-0.20;98086.00;;;;5072831;28;20194;-61
2023/12/17 03:38:52;;;;;;;0.90;0.90;;;0.90;85.30;-0.10;98079.00;;;;5072857;28;20215;-61
2023/12/17 03:41:23;;;;;;;2.23;1.90;;;0.90;85.10;-0.10;98078.00;;;;5073128;28;20182;-61
2023/12/17 03:43:52;;;;;;;1.00;1.00;;;1.00;84.90;-0.40;98066.00;;;;5072682;28;20684;-61
2023/12/17 03:46:19;;;;;;;3.17;1.60;;;0.80;83.50;-0.60;98077.00;;;;5072775;28;20558;-61
2023/12/17 03:48:46;;;;;;;2.00;1.90;;;0.70;90.10;-0.50;98069.00;;;;5072947;28;20193;-61
2023/12/17 03:51:15;;;;;;;1.53;1.43;;;0.70;92.90;-0.50;98067.00;;;;5072677;28;20249;-61
2023/12/17 03:53:43;;;;;;;1.27;1.27;;;;;-0.50;98059.00;;;;5072829;28;20216;-61
2023/12/17 03:56:11;;;;;;;1.10;1.10;;;;;-0.50;98045.00;;;;5072946;28;20201;-61
2023/12/17 03:58:39;;;;;;;3.60;1.83;;;;;-0.50;98053.00;;;;5073194;28;20204;-61
2023/12/17 04:01:08;;;;;;;1.90;1.60;;;0.80;83.50;-0.50;98044.00;;;;5072572;28;20197;-61
2023/12/17 04:03:36;;;;;;;1.63;1.53;;;0.70;83.90;-0.50;98045.00;;;;5072667;28;20578;-62
2023/12/17 04:06:07;;;;;;;0.90;0.90;;;0.60;84.00;-0.60;98050.00;;;;5072532;28;20262;-61
2023/12/17 04:08:35;;;;;;;1.77;1.40;;;0.60;84.10;-0.60;98043.00;;;;5073071;28;20637;-61
2023/12/17 04:11:03;;;;;;;1.57;1.47;;;0.60;84.20;-0.50;98040.00;;;;5072988;28;20559;-61
2023/12/17 04:13:30;;;;;;;0.80;0.80;;;0.50;84.30;-0.50;98057.00;;;;5072706;28;20213;-61
2023/12/17 04:15:57;;;;;;;2.03;1.93;;;0.60;84.20;-0.50;98054.00;;;;5072704;28;20196;-61
2023/12/17 04:18:24;;;;;;;2.27;1.97;;;0.70;84.20;-0.40;98055.00;;;;5074643;28;20193;-61
2023/12/17 04:20:51;;;;;;;1.33;1.27;;;0.70;84.40;-0.40;98065.00;;;;5073503;28;20200;-61
2023/12/17 04:23:18;;;;;;;2.33;2.13;;;0.80;84.40;-0.30;98049.00;;;;5072733;28;20210;-61
2023/12/17 04:25:46;;;;;;;2.00;1.90;;;0.80;84.30;-0.30;98056.00;;;;5072430;28;20262;-61
2023/12/17 04:28:13;;;;;;;1.77;1.43;;;0.80;84.20;-0.30;98052.00;;;;5072439;28;20549;-61
2023/12/17 04:30:39;;;;;;;1.03;1.03;;;0.80;83.80;-0.30;98063.00;;;;5072642;28;20198;-61
2023/12/17 04:33:06;;;;;;;1.63;1.53;;;0.60;83.60;-0.30;98056.00;;;;5072324;28;20599;-61
2023/12/17 04:35:33;;;;;;;1.47;1.40;;;0.80;83.50;-0.30;98045.00;;;;5072316;28;20194;-61
2023/12/17 04:38:00;;;;;;;0.83;0.83;;;0.70;83.40;-0.40;98045.00;;;;5072348;28;20197;-61
2023/12/17 04:40:27;;;;;;;0.90;0.90;;;0.70;83.40;-0.50;98041.00;;;;5075220;28;20561;-61
2023/12/17 04:42:56;;;;;;;1.10;1.10;;;0.70;83.60;-0.40;98039.00;;;;5075732;28;20744;-61
2023/12/17 04:45:23;;;;;;;1.50;1.40;;;0.70;84.10;-0.40;98049.00;;;;5075725;28;20243;-61
2023/12/17 04:47:51;;;;;;;1.07;1.07;;;0.70;84.20;-0.40;98055.00;;;;5075694;28;20659;-61
2023/12/17 04:50:18;;;;;;;0.97;0.97;;;0.70;84.00;-0.40;98059.00;;;;5075913;28;20221;-61
2023/12/17 04:52:45;;;;;;;1.47;1.47;;;0.70;83.80;-0.40;98062.00;;;;5075519;28;20224;-62
2023/12/17 04:55:12;;;;;;;0.83;0.83;;;0.70;83.80;-0.40;98046.00;;;;5075737;28;20193;-61
2023/12/17 04:57:40;;;;;;;1.23;1.23;;;0.70;84.00;-0.40;98045.00;;;;5075538;28;20193;-62
2023/12/17 05:00:09;;;;;;;1.50;1.40;;;0.70;83.90;-0.40;98052.00;;;;5075611;28;20740;-61
2023/12/17 05:02:37;;;;;;;1.00;1.00;;;0.70;84.00;-0.40;98053.00;;;;5075689;28;20220;-61
2023/12/17 05:05:05;;;;;;;1.40;1.33;;;0.70;83.60;-0.40;98047.00;;;;5075289;28;20211;-61
2023/12/17 05:07:32;;;;;;;1.57;1.47;;;0.70;83.70;-0.50;98043.00;;;;5075174;28;20202;-61
2023/12/17 05:09:59;;;;;;;1.13;1.10;;;0.70;83.60;-0.50;98038.00;;;;5075233;28;20197;-61
2023/12/17 05:12:26;;;;;;;0.80;0.80;;;0.60;83.40;-0.50;98045.00;;;;5073845;28;20221;-62
2023/12/17 05:14:53;;;;;;;2.80;1.27;;;0.60;83.50;-0.40;98035.00;;;;5075130;28;20212;-61
2023/12/17 05:17:21;;;;;;;1.10;1.10;;;0.70;83.60;-0.40;98029.00;;;;5075103;28;20195;-61
2023/12/17 05:19:48;;;;;;;1.10;1.10;;;0.60;83.00;-0.40;98022.00;;;;5075277;28;20542;-61
2023/12/17 05:22:15;;;;;;;0.90;0.90;;;0.70;82.90;-0.40;98016.00;;;;5074935;28;20222;-61
2023/12/17 05:24:42;;;;;;;1.00;1.00;;;0.70;82.80;-0.50;98021.00;;;;5074867;28;20261;-61
2023/12/17 05:27:09;;;;;;;2.00;1.17;;;0.70;82.80;-0.40;98014.00;;;;5074978;28;20187;-61
2023/12/17 05:29:37;;;;;;;0.73;0.73;;;0.60;82.90;-0.40;98007.00;;;;5073635;28;20541;-61
2023/12/17 05:32:05;;;;;;;0.80;0.80;;;0.70;83.10;-0.40;98022.00;;;;5074982;28;20210;-61
2023/12/17 05:34:36;;;;;;;1.50;1.40;;;0.70;83.10;-0.40;98014.00;;;;5074910;28;20578;-61
2023/12/17 05:37:03;;;;;;;1.10;1.10;;;0.70;83.20;-0.40;98014.00;;;;5074736;28;20178;-61
2023/12/17 05:39:30;;;;;;;1.00;1.00;;;0.70;83.30;-0.40;98013.00;;;;5074862;28;20194;-61
2023/12/17 05:41:57;;;;;;;0.70;0.70;;;0.80;82.90;-0.40;98009.00;;;;5074619;28;20209;-61
2023/12/17 05:44:24;;;;;;;0.80;0.80;;;0.70;82.70;-0.30;98005.00;;;;5075063;28;20657;-62
2023/12/17 05:46:51;;;;;;;1.17;1.13;;;0.80;82.80;-0.30;98013.00;;;;5075290;28;20248;-62
2023/12/17 05:49:18;;;;;;;0.90;0.90;;;0.80;83.50;-0.30;98010.00;;;;5074325;28;20202;-61
2023/12/17 05:51:48;;;;;;;0.90;0.90;;;0.70;82.60;-0.40;98005.00;;;;5074421;28;20210;-61
2023/12/17 05:54:16;;;;;;;2.17;1.83;;;0.80;82.40;-0.40;97997.00;;;;5074812;28;20267;-62
2023/12/17 05:56:43;;;;;;;0.97;0.97;;;0.70;82.50;-0.40;97995.00;;;;5074424;28;20217;-61
2023/12/17 05:59:10;;;;;;;0.80;0.80;;;0.70;82.90;-0.30;97995.00;;;;5074213;28;20682;-61
2023/12/17 06:01:37;;;;;;;0.87;0.87;;;0.80;83.30;-0.30;97999.00;;;;5074220;28;20284;-61
2023/12/17 06:04:05;;;;;;;1.37;1.37;;;0.80;83.00;-0.40;97995.00;;;;5074106;28;20278;-61
2023/12/17 06:06:32;;;;;;;1.23;1.20;;;0.80;83.00;-0.40;97998.00;;;;5074077;28;20208;-61
2023/12/17 06:09:00;;;;;;;0.90;0.90;;;0.80;83.10;-0.30;97997.00;;;;5074145;28;20189;-61
2023/12/17 06:11:27;;;;;;;1.23;1.17;;;0.80;83.30;-0.40;97996.00;;;;5074014;28;20196;-61
2023/12/17 06:13:54;;;;;;;1.90;1.23;;;0.70;82.40;-0.50;97993.00;;;;5072701;28;20194;-61
2023/12/17 06:16:21;;;;;;;1.00;1.00;;;0.70;83.80;-0.40;97998.00;;;;5074115;28;20202;-61
2023/12/17 06:18:50;;;;;;;0.67;0.67;;;0.70;83.80;-0.50;98003.00;;;;5073855;28;20194;-61
2023/12/17 06:21:24;;;;;;;1.00;1.00;;;0.70;84.40;-0.50;98000.00;;;;5074164;28;20181;-61
2023/12/17 06:23:57;;;;;;;1.00;1.00;;;0.70;83.80;-0.50;98004.00;;;;5073845;28;20190;-60
2023/12/17 06:26:26;;;;;;;1.80;1.23;;;0.70;84.00;-0.40;98017.00;;;;5073856;28;20569;-61
2023/12/17 06:28:53;;;;;;;1.63;1.47;;;0.70;84.00;-0.40;98024.00;;;;5073948;28;20190;-61
2023/12/17 06:31:21;;;;;;;1.03;1.00;;;0.70;84.00;-0.50;98018.00;;;;5073831;28;20193;-61
2023/12/17 06:33:48;;;;;;;1.17;1.17;;;0.70;83.70;-0.50;98025.00;;;;5073559;28;20685;-61
2023/12/17 06:36:15;;;;;;;0.70;0.70;;;0.60;83.60;-0.50;98028.00;;;;5073632;28;20193;-61
2023/12/17 06:38:42;;;;;;;1.57;1.47;;;0.70;83.60;-0.60;98036.00;;;;5073638;28;20204;-61
2023/12/17 06:41:09;;;;;;;0.90;0.90;;;0.60;83.00;-0.80;98029.00;;;;5073469;28;20192;-61
2023/12/17 06:43:40;;;;;;;1.50;1.03;;;0.40;82.90;-0.70;98037.00;;;;5073526;28;20190;-61
2023/12/17 06:46:07;;;;;;;0.77;0.77;;;0.40;83.70;-0.70;98029.00;;;;5073420;28;20212;-61
2023/12/17 06:48:35;;;;;;;0.70;0.70;;;0.40;83.50;-0.80;98029.00;;;;5073645;28;20194;-61
2023/12/17 06:51:02;;;;;;;1.10;1.10;;;0.40;83.20;-0.70;98028.00;;;;5073741;28;20229;-61
2023/12/17 06:53:29;;;;;;;1.50;1.17;;;0.40;83.30;-0.70;98028.00;;;;5073417;28;20235;-61
2023/12/17 06:55:56;;;;;;;1.00;1.00;;;0.40;83.20;-0.70;98027.00;;;;5073147;28;20203;-61
2023/12/17 06:58:24;;;;;;;0.93;0.93;;;0.40;82.90;-0.80;98032.00;;;;5073535;28;20212;-61
2023/12/17 07:00:52;;;;;;;1.10;1.03;;;0.20;83.10;-0.90;98028.00;;;;5073215;28;20232;-61
2023/12/17 07:03:20;;;;;;;0.90;0.90;;;0.30;83.70;-0.80;98018.00;;;;5072703;28;20227;-61
2023/12/17 07:05:47;;;;;;;0.93;0.93;;;0.30;84.20;-0.80;98022.00;;;;5072971;28;20685;-61
2023/12/17 07:08:14;;;;;;;0.87;0.87;;;0.30;84.40;-0.80;98028.00;;;;5073296;28;20236;-61
2023/12/17 07:10:41;;;;;;;2.00;1.00;;;0.30;84.40;-0.80;98030.00;;;;5073157;28;20212;-61
2023/12/17 07:13:08;;;;;;;1.30;1.30;;;0.30;84.70;-0.80;98031.00;;;;5072970;28;20217;-61
2023/12/17 07:15:35;;;;;;;0.83;0.77;;;0.40;84.40;-0.70;98034.00;;;;5073026;28;20187;-61
2023/12/17 07:18:03;;;;;;;1.10;1.10;;;0.40;84.80;-0.70;98023.00;;;;5072881;28;20660;-61
2023/12/17 07:20:30;;;;;;;0.80;0.80;;;0.40;84.30;-0.70;98029.00;;;;5073468;28;20193;-61
2023/12/17 07:22:58;;;;;;;0.90;0.90;;;0.40;83.60;-0.80;98028.00;;;;5072940;28;20540;-61
2023/12/17 07:25:28;;;;;;;1.27;1.23;;;0.40;84.10;-0.70;98029.00;;;;5072881;28;20220;-61
2023/12/17 07:27:55;;;;;;;0.90;0.90;;;0.40;93.30;-0.60;98024.00;;;;5073257;28;20628;-62
2023/12/17 07:30:22;;;;;;;1.03;1.03;;;0.50;97.90;-0.80;98022.00;;;;5073299;28;20182;-62
2023/12/17 07:32:49;;;;;;;1.10;1.10;;;0.50;95.30;-0.70;98027.00;;;;5072712;28;20215;-61
2023/12/17 07:35:18;;;;;;;1.57;1.23;;;0.40;98.70;-0.70;98014.00;;;;5072937;28;20191;-62
2023/12/17 07:37:45;;;;;;;0.80;0.80;;;0.50;99.90;-0.70;98027.00;;;;5072895;28;20525;-60
2023/12/17 07:40:12;;;;;;;1.03;1.03;;;0.50;99.20;-0.60;98018.00;;;;5072862;28;20193;-60
2023/12/17 07:42:41;;;;;;;1.53;1.33;;;0.50;99.90;-0.60;98030.00;;;;5071353;28;20216;-62
2023/12/17 07:45:10;;;;;;;0.87;0.87;;;0.60;99.90;-0.60;98021.00;;;;5072833;28;20286;-61
2023/12/17 07:47:37;;;;;;;0.87;0.87;;;0.50;99.90;-0.50;98018.00;;;;5072858;28;20193;-61
2023/12/17 07:50:08;;;;;;;0.80;0.80;;;0.60;99.90;-0.40;98026.00;;;;5072760;28;20270;-61
2023/12/17 07:52:36;;;;;;;0.90;0.90;;;0.70;99.90;-0.30;98029.00;;;;5072801;28;20270;-61
2023/12/17 07:55:04;;;;;;;1.40;1.30;;;0.70;99.90;-0.30;98023.00;;;;5072796;28;20272;-61
2023/12/17 07:57:33;;;;;;;1.60;1.50;;;0.90;99.90;-0.30;98022.00;;;;5073362;28;20200;-61
2023/12/17 08:00:00;;;;;;;0.83;0.83;;;0.80;99.90;-0.30;98021.00;;;;5071764;28;20573;-61
2023/12/17 08:02:27;;;;;;;1.67;1.57;;;0.90;99.90;-0.30;98014.00;;;;5072838;28;20212;-61
2023/12/17 08:04:54;;;;;;;0.97;0.97;;;0.80;99.90;-0.20;98021.00;;;;5073376;28;20188;-61
2023/12/17 08:07:21;;;;;;;1.67;1.57;;;0.80;99.90;-0.10;98013.00;;;;5071982;28;20548;-61
2023/12/17 08:09:50;;;;;;;0.87;0.87;;;;;0.00;98026.00;;;;5073846;28;20197;-61
2023/12/17 08:12:17;;;;;;;1.27;1.17;;;0.90;81.70;0.00;98018.00;;;;5073586;28;20213;-61
2023/12/17 08:14:44;;;;;;;1.20;1.20;;;1.00;81.70;0.10;98022.00;;;;5076728;28;20194;-61
2023/12/17 08:17:11;;;;;;;1.00;1.00;;;1.10;81.50;0.20;98016.00;;;;5076469;28;20190;-62
2023/12/17 08:19:42;;;;;;;1.80;1.70;;;1.20;81.50;0.30;98015.00;;;;5075051;28;20674;-61
2023/12/17 08:22:09;;;;;;;1.13;1.13;;;1.20;81.50;0.30;98029.00;;;;5076498;28;20320;-62
2023/12/17 08:24:36;;;;;;;1.30;1.23;;;1.30;81.60;0.40;98012.00;;;;5076246;28;20190;-61
2023/12/17 08:27:05;;;;;;;1.13;1.13;;;1.40;81.70;0.40;98012.00;;;;5076249;28;20221;-61
2023/12/17 08:29:33;;;;;;;1.33;1.27;;;1.40;81.30;0.50;98015.00;;;;5076664;28;20190;-61
2023/12/17 08:32:00;;;;;;;1.93;1.83;;;1.50;81.40;0.50;98024.00;;;;5076506;28;20758;-62
2023/12/17 08:34:29;;;;;;;1.00;1.00;;;1.50;81.20;0.50;98017.00;;;;5076025;28;20213;-62
2023/12/17 08:36:57;;;;;;;0.80;0.80;;;1.60;80.80;0.60;98005.00;;;;5076170;28;20548;-62
2023/12/17 08:39:25;;;;;;;1.13;1.13;;;1.70;80.90;0.70;97999.00;;;;5076446;28;20198;-61
2023/12/17 08:41:55;;;;;;;1.53;1.43;;;1.70;80.70;0.80;98005.00;;;;5075743;28;20212;-62
2023/12/17 08:44:25;;;;;;;1.53;1.43;;;1.80;80.80;0.90;98006.00;;;;5076249;28;20588;-61
2023/12/17 08:46:52;;;;;;;1.07;1.07;;;1.90;81.10;1.00;97996.00;;;;5076661;28;20611;-61
2023/12/17 08:49:20;;;;;;;0.73;0.73;;;1.90;81.20;1.00;98005.00;;;;5075814;28;20209;-62
2023/12/17 08:51:47;;;;;;;2.93;1.43;;;2.00;80.80;1.10;98012.00;;;;5075857;28;20233;-62
2023/12/17 08:54:14;;;;;;;1.67;1.57;;;2.10;81.00;1.20;98004.00;;;;5075468;28;20184;-61
2023/12/17 08:56:41;;;;;;;0.80;0.80;;;2.20;80.80;1.40;98006.00;;;;5075460;28;20191;-62
2023/12/17 08:59:09;;;;;;;0.80;0.80;;;2.30;80.80;1.40;98001.00;;;;5075833;28;20554;-62
2023/12/17 09:01:37;;;;;;;1.50;1.40;;;2.40;80.50;1.50;98014.00;;;;5075336;28;20755;-62
2023/12/17 09:04:04;;;;;;;1.50;1.40;;;2.40;80.40;1.60;98012.00;;;;5075480;28;20187;-61
2023/12/17 09:06:31;;;;;;;1.27;1.27;;;2.50;80.30;1.50;98002.00;;;;5075044;28;20220;-61
2023/12/17 09:08:58;;;;;;;1.70;1.60;;;2.50;79.00;1.60;98008.00;;;;5075452;28;20198;-62
2023/12/17 09:11:28;;;;;;;0.83;0.80;;;2.50;79.80;1.60;98010.00;;;;5075213;28;20194;-62
2023/12/17 09:13:55;;;;;;;0.70;0.70;;;2.50;79.60;1.60;98002.00;;;;5075465;28;20248;-62
2023/12/17 09:16:22;;;;;;;1.17;1.07;;;2.60;79.90;1.50;97997.00;;;;5075026;28;20202;-62
2023/12/17 09:18:51;;;;;;;0.73;0.73;;;2.50;79.80;1.70;97990.00;;;;5075292;28;20210;-62
2023/12/17 09:21:18;;;;;;;0.73;0.73;;;;;1.90;97995.00;;;;5075152;28;20190;-62
2023/12/17 09:23:45;;;;;;;1.20;1.17;;;;;2.00;97997.00;;;;5075097;28;20191;-61
2023/12/17 09:26:13;;;;;;;1.03;1.03;;;;;2.10;97997.00;;;;5074268;28;20219;-61
2023/12/17 09:28:41;;;;;;;1.37;1.27;;;;;2.10;97994.00;;;;5075015;28;20198;-61
2023/12/17 09:31:09;;;;;;;0.93;0.93;;;;;1.90;97995.00;;;;5075268;28;20187;-62
2023/12/17 09:33:37;;;;;;;1.87;1.43;;;;;2.10;97994.00;;;;5073528;28;20279;-61
2023/12/17 09:36:07;;;;;;;2.33;2.13;;;;;2.10;98002.00;;;;5075771;28;20589;-61
2023/12/17 09:38:34;;;;;;;0.97;0.97;;;;;2.20;98001.00;;;;5074705;28;20303;-62
2023/12/17 09:41:01;;;;;;;1.40;1.33;;;3.20;79.60;2.30;98001.00;;;;5074699;28;20191;-61
2023/12/17 09:43:29;;;;;;;1.47;1.37;;;3.20;80.20;2.30;98002.00;;;;5074681;28;20199;-61
2023/12/17 09:45:56;;;;;;;1.20;1.20;;;3.20;79.50;2.30;98010.00;;;;5074596;28;20219;-61
2023/12/17 09:48:24;;;;;;;1.10;1.10;;;3.10;80.30;2.40;97991.00;;;;5075079;28;20203;-62
2023/12/17 09:50:51;;;;;;;0.87;0.87;;;3.30;80.70;2.60;97999.00;;;;5074603;28;20191;-61
2023/12/17 09:53:21;;;;;;;0.83;0.83;;;3.40;81.00;2.70;97996.00;;;;5074466;28;20218;-62
2023/12/17 09:55:49;;;;;;;1.27;1.27;;;;;2.80;97991.00;;;;5074439;28;20180;-62
2023/12/17 09:58:16;;;;;;;1.10;1.10;;;3.70;78.80;2.90;97996.00;;;;5074297;28;20199;-62
2023/12/17 10:00:44;;;;;;;1.30;1.20;;;;;3.00;97991.00;;;;5074542;28;20222;-62
2023/12/17 10:03:13;;;;;;;1.10;1.10;;;3.80;78.20;3.00;97984.00;;;;5073710;28;20219;-63
2023/12/17 10:05:40;;;;;;;0.70;0.70;;;3.80;78.10;3.10;97985.00;;;;5073923;28;20211;-62
2023/12/17 10:08:07;;;;;;;1.03;0.93;;;3.90;78.10;3.10;97975.00;;;;5074108;28;20164;-62
2023/12/17 10:10:36;;;;;;;1.73;1.63;;;;;3.30;97973.00;;;;5074115;28;20594;-62
2023/12/17 10:13:06;;;;;;;1.23;1.23;;;;;3.30;97977.00;;;;5074078;28;20694;-62
2023/12/17 10:15:37;;;;;;;1.00;1.00;;;;;3.70;97968.00;;;;5073641;28;20184;-62
2023/12/17 10:18:05;;;;;;;1.23;1.20;;;;;4.00;97962.00;;;;5074031;28;20230;-62
2023/12/17 10:20:32;;;;;;;0.77;0.77;;;;;4.10;97960.00;;;;5073931;28;20220;-62
2023/12/17 10:23:03;;;;;;;1.47;1.33;;;;;4.20;97964.00;;;;5073780;28;20658;-62
2023/12/17 10:25:30;;;;;;;1.50;1.40;;;;;4.40;97950.00;;;;5074122;28;20180;-63
2023/12/17 10:28:00;;;;;;;1.03;1.03;;;;;4.40;97950.00;;;;5073867;28;20191;-62
2023/12/17 10:30:29;;;;;;;1.73;1.20;;;;;4.40;97952.00;;;;5073879;28;20219;-62
2023/12/17 10:32:57;;;;;;;1.10;1.10;;;;;4.30;97949.00;;;;5073919;28;20207;-62
2023/12/17 10:35:25;;;;;;;1.07;1.07;;;;;4.50;97942.00;;;;5074147;28;20188;-62
2023/12/17 10:37:54;;;;;;;0.70;0.70;;;;;4.50;97954.00;;;;5072719;28;20204;-62
2023/12/17 10:40:22;;;;;;;1.13;1.13;;;;;4.60;97934.00;;;;5073491;28;20659;-60
2023/12/17 10:42:50;;;;;;;0.93;0.90;;;;;4.60;97936.00;;;;5073618;28;20215;-61
2023/12/17 10:45:21;;;;;;;1.30;1.20;;;;;4.80;97938.00;;;;5073516;28;20287;-61
2023/12/17 10:47:53;;;;;;;1.80;1.20;;;;;4.90;97934.00;;;;5073755;28;20195;-61
2023/12/17 10:50:21;;;;;;;1.10;1.10;;;;;5.00;97934.00;;;;5073420;28;20179;-62
2023/12/17 10:52:48;;;;;;;1.63;1.53;;;;;5.10;97919.00;;;;5073292;28;20286;-62
2023/12/17 10:55:16;;;;;;;0.80;0.80;;;;;5.20;97925.00;;;;5073276;28;20659;-62
2023/12/17 10:57:48;;;;;;;1.60;1.20;;;;;5.40;97927.00;;;;5073468;28;20206;-62
2023/12/17 11:00:21;;;;;;;1.27;1.27;;;;;5.70;97916.00;;;;5073256;28;20190;-62
2023/12/17 11:02:52;;;;;;;2.03;1.90;;;;;6.20;97909.00;;;;5073325;28;20211;-62
2023/12/17 11:05:19;;;;;;;1.10;1.10;;;;;7.00;97893.00;;;;5073039;28;20245;-62
2023/12/17 11:07:47;;;;;;;1.63;1.30;;;;;8.40;97865.00;;;;5072892;28;20212;-62
2023/12/17 11:10:15;;;;;;;1.23;1.20;;;;;10.30;97861.00;;;;5073171;28;20191;-63
2023/12/17 11:12:45;;;;;;;0.90;0.90;;;;;12.00;97858.00;;;;5073115;28;20708;-63
2023/12/17 11:15:14;;;;;;;0.70;0.70;;;;;13.50;97861.00;;;;5073252;28;20202;-62
2023/12/17 11:17:44;;;;;;;2.97;1.73;;;;;15.10;97860.00;;;;5073577;28;20191;-63
2023/12/17 11:20:12;;;;;;;1.80;1.70;;;;;15.80;97862.00;;;;5071897;28;20570;-63